createdAt,value
2018-07-30T00:00:28.058Z,594.1
2018-07-30T00:01:30.234Z,594.4
2018-07-30T00:02:32.676Z,594.3
2018-07-30T00:03:34.869Z,594.5
2018-07-30T00:04:37.323Z,594.5
2018-07-30T00:05:39.486Z,594.6
2018-07-30T00:06:41.934Z,594.7
2018-07-30T00:07:44.083Z,594.7
2018-07-30T00:08:46.259Z,594.5
2018-07-30T00:09:48.708Z,594.6
2018-07-30T00:10:51.151Z,594.4
2018-07-30T00:11:53.335Z,594.4
2018-07-30T00:12:55.516Z,594.5
2018-07-30T00:13:57.974Z,594.5
2018-07-30T00:15:00.422Z,594.2
2018-07-30T00:16:02.599Z,594.5
2018-07-30T00:17:04.765Z,594.1
2018-07-30T00:18:06.944Z,594.2
2018-07-30T00:19:09.095Z,594.1
2018-07-30T00:20:11.276Z,593.8
2018-07-30T00:21:13.193Z,593.8
2018-07-30T00:22:15.626Z,593.9
2018-07-30T00:23:18.071Z,593.9
2018-07-30T00:24:20.525Z,593.6
2018-07-30T00:25:22.709Z,593.6
2018-07-30T00:26:25.159Z,593.4
2018-07-30T00:27:27.071Z,593.5
2018-07-30T00:28:28.980Z,593.3
2018-07-30T00:29:31.166Z,593.2
2018-07-30T00:30:33.338Z,593.5
2018-07-30T00:31:35.516Z,593.1
2018-07-30T00:32:37.960Z,592.9
2018-07-30T00:33:40.416Z,593.2
2018-07-30T00:34:42.609Z,592.9
2018-07-30T00:35:44.796Z,593.3
2018-07-30T00:36:46.973Z,593.1
2018-07-30T00:37:49.426Z,593.3
2018-07-30T00:38:51.029Z,593.1
2018-07-30T00:39:53.226Z,593.2
2018-07-30T00:40:55.382Z,592.9
2018-07-30T00:41:57.541Z,592.9
2018-07-30T00:42:59.464Z,593.1
2018-07-30T00:44:01.365Z,593
2018-07-30T00:45:03.552Z,593
2018-07-30T00:46:05.698Z,592.8
2018-07-30T00:47:08.139Z,593.2
2018-07-30T00:48:10.388Z,593.1
2018-07-30T00:49:12.880Z,593.3
2018-07-30T00:50:15.344Z,593.4
2018-07-30T00:51:17.789Z,593
2018-07-30T00:52:19.723Z,593.1
2018-07-30T00:53:22.169Z,593
2018-07-30T00:54:24.346Z,592.8
2018-07-30T00:55:26.524Z,592.7
2018-07-30T00:56:28.974Z,592.7
2018-07-30T00:57:31.147Z,592.7
2018-07-30T00:58:33.607Z,592.2
2018-07-30T00:59:36.064Z,592.2
2018-07-30T01:00:38.229Z,592.2
2018-07-30T01:01:40.452Z,592.4
2018-07-30T01:02:42.895Z,592
2018-07-30T01:03:45.337Z,592
2018-07-30T01:04:47.509Z,592
2018-07-30T01:05:49.396Z,591.9
2018-07-30T01:06:51.853Z,592
2018-07-30T01:07:54.055Z,591.7
2018-07-30T01:08:56.514Z,591.8
2018-07-30T01:09:58.672Z,591.8
2018-07-30T01:11:01.117Z,591.7
2018-07-30T01:12:03.558Z,591.8
2018-07-30T01:13:06.016Z,591.5
2018-07-30T01:14:08.206Z,591.8
2018-07-30T01:15:10.380Z,592.1
2018-07-30T01:16:12.540Z,591.7
2018-07-30T01:17:14.708Z,591.9
2018-07-30T01:18:16.907Z,592
2018-07-30T01:19:19.353Z,591.7
2018-07-30T01:20:20.980Z,591.6
2018-07-30T01:21:23.442Z,591.7
2018-07-30T01:22:25.622Z,591.4
2018-07-30T01:23:28.068Z,591.5
2018-07-30T01:24:30.252Z,591.2
2018-07-30T01:25:32.404Z,591.5
2018-07-30T01:26:34.570Z,591.6
2018-07-30T01:27:37.018Z,591.3
2018-07-30T01:28:39.477Z,591.1
2018-07-30T01:29:41.646Z,591.4
2018-07-30T01:30:44.093Z,591.3
2018-07-30T01:31:46.295Z,591.7
2018-07-30T01:32:48.464Z,590.9
2018-07-30T01:33:50.915Z,591.1
2018-07-30T01:34:52.798Z,590.9
2018-07-30T01:35:54.947Z,591.1
2018-07-30T01:36:57.116Z,591.4
2018-07-30T01:37:59.575Z,591.2
2018-07-30T01:39:01.756Z,591.6
2018-07-30T01:40:03.937Z,591.6
2018-07-30T01:41:06.385Z,591.4
2018-07-30T01:42:08.545Z,591.6
2018-07-30T01:43:10.727Z,591.5
2018-07-30T01:44:12.639Z,591.8
2018-07-30T01:45:15.097Z,591.7
2018-07-30T01:46:17.020Z,592
2018-07-30T01:47:19.469Z,592
2018-07-30T01:48:21.918Z,592
2018-07-30T01:49:24.371Z,592
2018-07-30T01:50:26.828Z,591.6
2018-07-30T01:51:29.005Z,591.9
2018-07-30T01:52:31.474Z,592
2018-07-30T01:53:33.918Z,591.7
2018-07-30T01:54:36.361Z,591.7
2018-07-30T01:55:38.244Z,591.7
2018-07-30T01:56:40.135Z,591.9
2018-07-30T01:57:42.582Z,591.7
2018-07-30T01:58:45.026Z,591.8
2018-07-30T01:59:47.463Z,591.6
2018-07-30T02:00:49.619Z,591.9
2018-07-30T02:01:51.793Z,591.6
2018-07-30T02:02:53.975Z,591.8
2018-07-30T02:03:56.417Z,592
2018-07-30T02:04:58.885Z,591.5
2018-07-30T02:06:00.839Z,592.1
2018-07-30T02:07:03.006Z,591.9
2018-07-30T02:08:04.917Z,592.2
2018-07-30T02:09:07.096Z,592.1
2018-07-30T02:10:09.282Z,592.1
2018-07-30T02:11:11.736Z,592.1
2018-07-30T02:12:14.179Z,592.1
2018-07-30T02:13:16.636Z,592
2018-07-30T02:14:18.531Z,591.9
2018-07-30T02:15:20.405Z,592
2018-07-30T02:16:22.584Z,592
2018-07-30T02:17:24.500Z,592.1
2018-07-30T02:18:26.951Z,592
2018-07-30T02:19:29.421Z,592.5
2018-07-30T02:20:31.581Z,592.3
2018-07-30T02:21:33.895Z,592
2018-07-30T02:22:36.121Z,592.3
2018-07-30T02:23:38.567Z,592.6
2018-07-30T02:24:40.471Z,592.2
2018-07-30T02:25:42.088Z,592.4
2018-07-30T02:26:44.536Z,592.3
2018-07-30T02:27:47.008Z,592.4
2018-07-30T02:28:49.188Z,592.4
2018-07-30T02:29:51.347Z,592.6
2018-07-30T02:30:53.259Z,592.4
2018-07-30T02:31:55.404Z,592.3
2018-07-30T02:32:57.297Z,592.5
2018-07-30T02:33:59.484Z,592
2018-07-30T02:35:01.935Z,592.1
2018-07-30T02:36:04.113Z,591.9
2018-07-30T02:37:06.554Z,592.2
2018-07-30T02:38:08.456Z,591.8
2018-07-30T02:39:10.605Z,592.1
2018-07-30T02:40:12.748Z,592
2018-07-30T02:41:14.376Z,591.7
2018-07-30T02:42:16.841Z,591.8
2018-07-30T02:43:19.296Z,591.6
2018-07-30T02:44:21.223Z,591.8
2018-07-30T02:45:23.663Z,591.5
2018-07-30T02:46:26.109Z,591.4
2018-07-30T02:47:28.001Z,591.4
2018-07-30T02:48:30.457Z,591.1
2018-07-30T02:49:32.093Z,590.9
2018-07-30T02:50:34.549Z,591.2
2018-07-30T02:51:37.012Z,590.9
2018-07-30T02:52:39.447Z,590.7
2018-07-30T02:53:41.908Z,590.8
2018-07-30T02:54:44.074Z,590.5
2018-07-30T02:55:46.258Z,590.5
2018-07-30T02:56:48.167Z,590.4
2018-07-30T02:57:50.828Z,590.4
2018-07-30T02:58:52.751Z,589.8
2018-07-30T02:59:55.187Z,590.2
2018-07-30T03:00:57.635Z,590.2
2018-07-30T03:01:59.825Z,590.2
2018-07-30T03:03:01.712Z,590.2
2018-07-30T03:04:04.161Z,590.5
2018-07-30T03:05:06.612Z,590.3
2018-07-30T03:06:09.067Z,590.2
2018-07-30T03:07:10.408Z,590.3
2018-07-30T03:08:12.604Z,590.2
2018-07-30T03:09:14.824Z,590.4
2018-07-30T03:10:16.974Z,590.2
2018-07-30T03:11:19.432Z,590.3
2018-07-30T03:12:21.314Z,589.9
2018-07-30T03:13:23.485Z,590.2
2018-07-30T03:14:25.676Z,590.2
2018-07-30T03:15:27.580Z,590.1
2018-07-30T03:16:29.750Z,589.9
2018-07-30T03:17:31.906Z,590.1
2018-07-30T03:18:34.105Z,590.3
2018-07-30T03:19:36.276Z,590.5
2018-07-30T03:20:38.166Z,590.5
2018-07-30T03:21:40.348Z,590.2
2018-07-30T03:22:42.246Z,590
2018-07-30T03:23:44.693Z,590
2018-07-30T03:24:47.154Z,590
2018-07-30T03:25:49.058Z,590.2
2018-07-30T03:26:50.954Z,589.9
2018-07-30T03:27:53.132Z,590.2
2018-07-30T03:28:55.397Z,589.9
2018-07-30T03:29:57.848Z,589.3
2018-07-30T03:31:00.036Z,589.5
2018-07-30T03:32:02.208Z,589.8
2018-07-30T03:33:04.666Z,589.4
2018-07-30T03:34:06.831Z,589.3
2018-07-30T03:35:09.032Z,589.8
2018-07-30T03:36:11.187Z,589.8
2018-07-30T03:37:13.098Z,589.3
2018-07-30T03:38:15.277Z,589.1
2018-07-30T03:39:17.455Z,588.9
2018-07-30T03:40:19.926Z,588.6
2018-07-30T03:41:21.833Z,588.7
2018-07-30T03:42:24.046Z,588.9
2018-07-30T03:43:26.228Z,588.4
2018-07-30T03:44:28.405Z,588.3
2018-07-30T03:45:30.289Z,588.8
2018-07-30T03:46:32.739Z,588.4
2018-07-30T03:47:34.891Z,588.8
2018-07-30T03:48:37.342Z,588.6
2018-07-30T03:49:39.517Z,588.8
2018-07-30T03:50:41.674Z,589.1
2018-07-30T03:51:43.295Z,589.2
2018-07-30T03:52:45.467Z,588.8
2018-07-30T03:53:47.352Z,588.9
2018-07-30T03:54:49.298Z,588.5
2018-07-30T03:55:51.548Z,588.8
2018-07-30T03:56:54.007Z,588.8
2018-07-30T03:57:56.615Z,588.6
2018-07-30T03:58:58.444Z,588.5
2018-07-30T04:00:01.393Z,588.6
2018-07-30T04:01:03.987Z,588.8
2018-07-30T04:02:06.437Z,588.8
2018-07-30T04:03:08.615Z,588.5
2018-07-30T04:04:10.795Z,588.5
2018-07-30T04:05:12.967Z,588.5
2018-07-30T04:06:15.402Z,588.4
2018-07-30T04:07:17.423Z,588.7
2018-07-30T04:08:19.604Z,588
2018-07-30T04:09:21.788Z,588.1
2018-07-30T04:10:23.958Z,588.1
2018-07-30T04:11:26.407Z,588
2018-07-30T04:12:28.295Z,588.1
2018-07-30T04:13:30.741Z,588
2018-07-30T04:14:33.185Z,588
2018-07-30T04:15:35.092Z,588.1
2018-07-30T04:16:37.267Z,588.1
2018-07-30T04:17:39.721Z,588.3
2018-07-30T04:18:41.893Z,587.8
2018-07-30T04:19:44.094Z,588.4
2018-07-30T04:20:46.552Z,588.3
2018-07-30T04:21:48.421Z,588.2
2018-07-30T04:22:50.871Z,588.3
2018-07-30T04:23:53.305Z,588.4
2018-07-30T04:24:55.461Z,588.1
2018-07-30T04:25:57.916Z,588.5
2018-07-30T04:27:00.368Z,588.3
2018-07-30T04:28:02.564Z,588.3
2018-07-30T04:29:05.013Z,588.3
2018-07-30T04:30:06.895Z,588.1
2018-07-30T04:31:09.343Z,588.5
2018-07-30T04:32:10.959Z,588.2
2018-07-30T04:33:13.126Z,588.2
2018-07-30T04:34:15.581Z,588
2018-07-30T04:35:17.766Z,588.2
2018-07-30T04:36:19.953Z,588.6
2018-07-30T04:37:22.442Z,588.4
2018-07-30T04:38:24.896Z,588.4
2018-07-30T04:39:26.783Z,588.2
2018-07-30T04:40:28.952Z,588.3
2018-07-30T04:41:31.114Z,588.2
2018-07-30T04:42:33.275Z,588.1
2018-07-30T04:43:35.722Z,587.9
2018-07-30T04:44:37.899Z,587.6
2018-07-30T04:45:40.346Z,587.6
2018-07-30T04:46:42.789Z,587.7
2018-07-30T04:47:45.244Z,587.5
2018-07-30T04:48:47.145Z,587.5
2018-07-30T04:49:49.340Z,587.9
2018-07-30T04:50:51.793Z,587.9
2018-07-30T04:51:54.254Z,587.8
2018-07-30T04:52:56.150Z,587.9
2018-07-30T04:53:58.333Z,587.7
2018-07-30T04:55:00.790Z,587.7
2018-07-30T04:56:03.232Z,587.3
2018-07-30T04:57:05.910Z,587.4
2018-07-30T04:58:08.480Z,587.1
2018-07-30T04:59:10.930Z,587
2018-07-30T05:00:13.381Z,587.2
2018-07-30T05:01:15.824Z,587.1
2018-07-30T05:02:17.474Z,587.3
2018-07-30T05:03:19.918Z,587.5
2018-07-30T05:04:22.104Z,587.7
2018-07-30T05:05:24.270Z,587.4
2018-07-30T05:06:26.427Z,587.6
2018-07-30T05:07:28.610Z,587.5
2018-07-30T05:08:31.049Z,587.4
2018-07-30T05:09:33.504Z,587.5
2018-07-30T05:10:35.956Z,587.4
2018-07-30T05:11:38.408Z,587.3
2018-07-30T05:12:40.280Z,587.4
2018-07-30T05:13:42.731Z,587.3
2018-07-30T05:14:44.622Z,587.2
2018-07-30T05:15:46.805Z,587.4
2018-07-30T05:16:49.267Z,587.5
2018-07-30T05:17:51.440Z,587.2
2018-07-30T05:18:53.616Z,587.3
2018-07-30T05:19:55.799Z,587.3
2018-07-30T05:20:57.984Z,587.3
2018-07-30T05:22:00.432Z,587.6
2018-07-30T05:23:02.635Z,587.6
2018-07-30T05:24:04.836Z,587.4
2018-07-30T05:25:07.288Z,587.3
2018-07-30T05:26:09.744Z,587.1
2018-07-30T05:27:12.185Z,587.3
2018-07-30T05:28:14.637Z,587.2
2018-07-30T05:29:16.788Z,587.2
2018-07-30T05:30:18.968Z,587.1
2018-07-30T05:31:21.422Z,587
2018-07-30T05:32:23.666Z,586.9
2018-07-30T05:33:25.853Z,587
2018-07-30T05:34:27.752Z,587
2018-07-30T05:35:30.203Z,586.9
2018-07-30T05:36:32.667Z,587.3
2018-07-30T05:37:34.852Z,587.2
2018-07-30T05:38:37.052Z,587
2018-07-30T05:39:39.221Z,586.8
2018-07-30T05:40:41.674Z,586.7
2018-07-30T05:41:43.860Z,587
2018-07-30T05:42:46.255Z,586.6
2018-07-30T05:43:48.713Z,587.3
2018-07-30T05:44:51.157Z,587
2018-07-30T05:45:53.325Z,586.6
2018-07-30T05:46:55.511Z,586.9
2018-07-30T05:47:57.663Z,586.9
2018-07-30T05:49:00.139Z,586.8
2018-07-30T05:50:02.879Z,586.5
2018-07-30T05:51:04.566Z,586.6
2018-07-30T05:52:06.439Z,586.8
2018-07-30T05:53:08.320Z,586.6
2018-07-30T05:54:10.763Z,587
2018-07-30T05:55:13.211Z,587
2018-07-30T05:56:15.385Z,586.7
2018-07-30T05:57:17.286Z,586.7
2018-07-30T05:58:19.761Z,586.4
2018-07-30T05:59:21.986Z,586.4
2018-07-30T06:00:24.163Z,586.4
2018-07-30T06:01:26.618Z,587
2018-07-30T06:02:29.065Z,586.9
2018-07-30T06:03:31.252Z,586.6
2018-07-30T06:04:33.434Z,586.8
2018-07-30T06:05:36.204Z,586.2
2018-07-30T06:06:38.268Z,586.3
2018-07-30T06:07:40.466Z,586.3
2018-07-30T06:08:42.610Z,585.9
2018-07-30T06:09:45.138Z,585.9
2018-07-30T06:10:47.668Z,585.9
2018-07-30T06:11:50.133Z,586.1
2018-07-30T06:12:52.043Z,585.9
2018-07-30T06:13:53.976Z,586.4
2018-07-30T06:14:55.862Z,585.8
2018-07-30T06:15:57.517Z,586
2018-07-30T06:16:59.661Z,586.1
2018-07-30T06:18:01.846Z,585.8
2018-07-30T06:19:04.018Z,585.7
2018-07-30T06:20:06.465Z,585.9
2018-07-30T06:21:08.922Z,585.5
2018-07-30T06:22:11.370Z,585.1
2018-07-30T06:23:13.518Z,585.2
2018-07-30T06:24:15.470Z,584.9
2018-07-30T06:25:17.381Z,585.1
2018-07-30T06:26:19.424Z,584.6
2018-07-30T06:27:22.196Z,584.9
2018-07-30T06:28:24.701Z,584.4
2018-07-30T06:29:26.897Z,584.5
2018-07-30T06:30:28.805Z,584.4
2018-07-30T06:31:30.957Z,584.2
2018-07-30T06:32:33.414Z,584.6
2018-07-30T06:33:35.344Z,584.3
2018-07-30T06:34:37.808Z,584.1
2018-07-30T06:35:40.256Z,584.1
2018-07-30T06:36:42.409Z,584.2
2018-07-30T06:37:44.588Z,584
2018-07-30T06:38:47.048Z,584
2018-07-30T06:39:49.224Z,584.1
2018-07-30T06:40:50.851Z,583.7
2018-07-30T06:41:53.028Z,583.9
2018-07-30T06:42:55.474Z,583.6
2018-07-30T06:43:57.668Z,583.2
2018-07-30T06:44:59.865Z,583
2018-07-30T06:46:02.045Z,582.4
2018-07-30T06:47:04.490Z,582.7
2018-07-30T06:48:07.017Z,582.6
2018-07-30T06:49:09.487Z,582.4
2018-07-30T06:50:11.674Z,582.3
2018-07-30T06:51:13.853Z,582.5
2018-07-30T06:52:15.739Z,582.4
2018-07-30T06:53:18.545Z,582.5
2018-07-30T06:54:21.046Z,582.3
2018-07-30T06:55:23.229Z,582.3
2018-07-30T06:56:25.407Z,582.3
2018-07-30T06:57:27.881Z,582.2
2018-07-30T06:58:30.085Z,582.5
2018-07-30T06:59:31.976Z,582.4
2018-07-30T07:00:34.158Z,582.1
2018-07-30T07:01:36.337Z,582.1
2018-07-30T07:02:38.791Z,582.3
2018-07-30T07:03:40.949Z,582.1
2018-07-30T07:04:42.839Z,582
2018-07-30T07:05:45.337Z,582.3
2018-07-30T07:06:47.780Z,582
2018-07-30T07:07:49.400Z,582
2018-07-30T07:08:51.850Z,581.8
2018-07-30T07:09:53.989Z,581.7
2018-07-30T07:10:56.764Z,581.8
2018-07-30T07:11:58.841Z,582.1
2018-07-30T07:13:01.037Z,581.6
2018-07-30T07:14:03.210Z,581.7
2018-07-30T07:15:05.662Z,581.6
2018-07-30T07:16:08.128Z,581.5
2018-07-30T07:17:10.299Z,581.5
2018-07-30T07:18:12.472Z,581.3
2018-07-30T07:19:14.677Z,581.5
2018-07-30T07:20:17.118Z,581.5
2018-07-30T07:21:19.956Z,581.2
2018-07-30T07:22:22.467Z,581.5
2018-07-30T07:23:24.084Z,581.2
2018-07-30T07:24:26.576Z,581.3
2018-07-30T07:25:28.471Z,581.5
2018-07-30T07:26:30.663Z,581.4
2018-07-30T07:27:32.835Z,581.4
2018-07-30T07:28:35.024Z,581.5
2018-07-30T07:29:37.468Z,581.1
2018-07-30T07:30:39.641Z,581.2
2018-07-30T07:31:41.568Z,581.7
2018-07-30T07:32:44.019Z,581.5
2018-07-30T07:33:46.221Z,581.9
2018-07-30T07:34:48.451Z,581.9
2018-07-30T07:35:50.883Z,581.6
2018-07-30T07:36:53.068Z,582
2018-07-30T07:37:55.526Z,581.9
2018-07-30T07:38:57.667Z,582
2018-07-30T07:39:59.585Z,581.9
2018-07-30T07:41:02.042Z,581.8
2018-07-30T07:42:04.190Z,581.9
2018-07-30T07:43:05.837Z,581.8
2018-07-30T07:44:08.281Z,581.7
2018-07-30T07:45:10.729Z,581.9
2018-07-30T07:46:12.644Z,581.6
2018-07-30T07:47:15.145Z,581.3
2018-07-30T07:48:18.035Z,581.4
2018-07-30T07:49:20.551Z,581.5
2018-07-30T07:50:24.306Z,581.7
2018-07-30T07:51:26.487Z,581.7
2018-07-30T07:52:28.933Z,581.9
2018-07-30T07:53:31.082Z,581.7
2018-07-30T07:54:33.227Z,581.6
2018-07-30T07:55:35.397Z,581.4
2018-07-30T07:56:36.750Z,581.4
2018-07-30T07:57:39.200Z,581.5
2018-07-30T07:58:41.648Z,581.6
2018-07-30T07:59:43.816Z,581.7
2018-07-30T08:00:45.696Z,581.4
2018-07-30T08:01:47.889Z,581.7
2018-07-30T08:02:50.348Z,582
2018-07-30T08:03:52.915Z,581.7
2018-07-30T08:04:55.098Z,581.4
2018-07-30T08:05:57.287Z,581.4
2018-07-30T08:06:59.470Z,581.3
2018-07-30T08:08:01.637Z,581.7
2018-07-30T08:09:03.847Z,581.1
2018-07-30T08:10:06.019Z,581.5
2018-07-30T08:11:08.717Z,581.4
2018-07-30T08:12:11.223Z,581.5
2018-07-30T08:13:13.405Z,581.6
2018-07-30T08:14:15.599Z,581.7
2018-07-30T08:15:17.217Z,582.1
2018-07-30T08:16:20.036Z,582
2018-07-30T08:17:22.561Z,581.9
2018-07-30T08:18:24.735Z,581.4
2018-07-30T08:19:27.204Z,581.6
2018-07-30T08:20:29.378Z,581.6
2018-07-30T08:21:31.569Z,581.8
2018-07-30T08:22:34.008Z,581.3
2018-07-30T08:23:36.219Z,581.6
2018-07-30T08:24:38.679Z,581.8
2018-07-30T08:25:40.903Z,581.4
2018-07-30T08:26:43.091Z,581.8
2018-07-30T08:27:45.561Z,581.9
2018-07-30T08:28:47.766Z,581.7
2018-07-30T08:29:49.953Z,581.9
2018-07-30T08:30:52.399Z,581.9
2018-07-30T08:31:54.860Z,582.3
2018-07-30T08:32:57.516Z,582.1
2018-07-30T08:33:59.967Z,582
2018-07-30T08:35:02.148Z,582.2
2018-07-30T08:36:04.060Z,582.5
2018-07-30T08:37:06.264Z,582.3
2018-07-30T08:38:08.167Z,582.1
2018-07-30T08:39:10.338Z,582.4
2018-07-30T08:40:11.706Z,582.4
2018-07-30T08:41:13.850Z,582.5
2018-07-30T08:42:16.210Z,582.3
2018-07-30T08:43:18.156Z,582.2
2018-07-30T08:44:20.341Z,581.9
2018-07-30T08:45:22.783Z,581.9
2018-07-30T08:46:24.703Z,582.1
2018-07-30T08:47:27.166Z,582.2
2018-07-30T08:48:29.620Z,582.2
2018-07-30T08:49:31.518Z,581.8
2018-07-30T08:50:33.714Z,581.7
2018-07-30T08:51:36.177Z,582
2018-07-30T08:52:38.361Z,582.3
2018-07-30T08:53:40.266Z,582
2018-07-30T08:54:42.447Z,581.9
2018-07-30T08:55:44.627Z,581.9
2018-07-30T08:56:47.078Z,581.8
2018-07-30T08:57:49.539Z,582.3
2018-07-30T08:58:51.698Z,582
2018-07-30T08:59:53.899Z,581.8
2018-07-30T09:00:56.076Z,581.9
2018-07-30T09:01:58.530Z,581.9
2018-07-30T09:03:00.973Z,581.8
2018-07-30T09:04:03.141Z,581.6
2018-07-30T09:05:05.049Z,582.1
2018-07-30T09:06:07.241Z,582.1
2018-07-30T09:07:09.570Z,581.9
2018-07-30T09:08:11.737Z,581.9
2018-07-30T09:09:13.921Z,581.8
2018-07-30T09:10:16.116Z,581.8
2018-07-30T09:11:18.574Z,581.8
2018-07-30T09:12:20.637Z,581.9
2018-07-30T09:13:23.091Z,582.4
2018-07-30T09:14:25.272Z,581.8
2018-07-30T09:15:27.471Z,582.3
2018-07-30T09:16:29.640Z,582.2
2018-07-30T09:17:31.830Z,582.2
2018-07-30T09:18:34.009Z,582.4
2018-07-30T09:19:36.463Z,582
2018-07-30T09:20:38.913Z,582.1
2018-07-30T09:21:41.354Z,582.2
2018-07-30T09:22:43.543Z,582
2018-07-30T09:23:45.726Z,582.2
2018-07-30T09:24:47.341Z,582.4
2018-07-30T09:25:49.528Z,582.4
2018-07-30T09:26:51.961Z,582.6
2018-07-30T09:27:54.413Z,582.7
2018-07-30T09:28:56.608Z,582.8
2018-07-30T09:29:59.069Z,582.7
2018-07-30T09:31:01.522Z,582.8
2018-07-30T09:32:03.983Z,582.8
2018-07-30T09:33:06.614Z,582.9
2018-07-30T09:34:09.111Z,582.7
2018-07-30T09:35:11.322Z,582.9
2018-07-30T09:36:13.799Z,583.1
2018-07-30T09:37:16.253Z,582.8
2018-07-30T09:38:18.447Z,582.7
2018-07-30T09:39:21.092Z,583.1
2018-07-30T09:40:23.635Z,582.8
2018-07-30T09:41:26.076Z,582.6
2018-07-30T09:42:28.519Z,583
2018-07-30T09:43:30.981Z,583
2018-07-30T09:44:33.404Z,582.8
2018-07-30T09:45:35.633Z,582.8
2018-07-30T09:46:38.086Z,582.6
2018-07-30T09:47:40.528Z,583.1
2018-07-30T09:48:42.674Z,583
2018-07-30T09:49:44.867Z,583
2018-07-30T09:50:47.055Z,583
2018-07-30T09:51:49.227Z,583.3
2018-07-30T09:52:51.676Z,583.3
2018-07-30T09:53:54.189Z,583.1
2018-07-30T09:54:56.077Z,583.4
2018-07-30T09:55:58.249Z,583.6
2018-07-30T09:57:00.458Z,583.7
2018-07-30T09:58:02.614Z,583.5
2018-07-30T09:59:04.796Z,583.5
2018-07-30T10:00:07.247Z,583.5
2018-07-30T10:01:09.745Z,583.6
2018-07-30T10:02:12.204Z,583.7
2018-07-30T10:03:14.393Z,583.7
2018-07-30T10:04:16.551Z,584
2018-07-30T10:05:18.733Z,583.8
2018-07-30T10:06:21.462Z,583.6
2018-07-30T10:07:24.157Z,583.9
2018-07-30T10:08:26.589Z,584.2
2018-07-30T10:09:29.042Z,583.7
2018-07-30T10:10:31.487Z,584.1
2018-07-30T10:11:34.073Z,584
2018-07-30T10:12:36.000Z,583.8
2018-07-30T10:13:38.460Z,583.9
2018-07-30T10:14:40.363Z,583.9
2018-07-30T10:15:42.812Z,583.9
2018-07-30T10:16:44.993Z,584
2018-07-30T10:17:47.810Z,584.1
2018-07-30T10:18:49.428Z,584.2
2018-07-30T10:19:51.608Z,584.3
2018-07-30T10:20:53.797Z,584.1
2018-07-30T10:21:55.978Z,584
2018-07-30T10:22:58.423Z,583.8
2018-07-30T10:24:00.575Z,583.9
2018-07-30T10:25:03.035Z,584
2018-07-30T10:26:05.477Z,583.8
2018-07-30T10:27:07.386Z,583.8
2018-07-30T10:28:09.817Z,584.1
2018-07-30T10:29:11.998Z,583.8
2018-07-30T10:30:14.255Z,583.6
2018-07-30T10:31:16.428Z,583.9
2018-07-30T10:32:18.879Z,584.4
2018-07-30T10:33:21.036Z,584.5
2018-07-30T10:34:23.307Z,584.3
2018-07-30T10:35:25.475Z,584.5
2018-07-30T10:36:27.924Z,584.4
2018-07-30T10:37:30.388Z,584.4
2018-07-30T10:38:32.846Z,584.1
2018-07-30T10:39:35.020Z,584.1
2018-07-30T10:40:37.475Z,584.3
2018-07-30T10:41:39.658Z,584.4
2018-07-30T10:42:42.110Z,584.4
2018-07-30T10:43:44.027Z,584.4
2018-07-30T10:44:46.468Z,584.4
2018-07-30T10:45:48.352Z,584.5
2018-07-30T10:46:50.793Z,584.8
2018-07-30T10:47:52.392Z,584.4
2018-07-30T10:48:54.562Z,584.5
2018-07-30T10:49:57.015Z,584.3
2018-07-30T10:50:59.190Z,584.6
2018-07-30T10:52:01.374Z,584.6
2018-07-30T10:53:03.562Z,584.7
2018-07-30T10:54:06.005Z,585
2018-07-30T10:55:08.189Z,584.6
2018-07-30T10:56:10.644Z,584.6
2018-07-30T10:57:12.817Z,584.6
2018-07-30T10:58:15.265Z,584.4
2018-07-30T10:59:17.456Z,584.1
2018-07-30T11:00:19.631Z,584
2018-07-30T11:01:22.074Z,584.2
2018-07-30T11:02:24.537Z,584.3
2018-07-30T11:03:26.731Z,584.6
2018-07-30T11:04:28.917Z,585
2018-07-30T11:05:30.598Z,584.7
2018-07-30T11:06:33.055Z,585.5
2018-07-30T11:07:35.495Z,585.1
2018-07-30T11:08:37.687Z,584.9
2018-07-30T11:09:39.822Z,585
2018-07-30T11:10:42.321Z,585
2018-07-30T11:11:44.464Z,585.2
2018-07-30T11:12:46.929Z,584.9
2018-07-30T11:13:49.132Z,584.7
2018-07-30T11:14:51.599Z,584.9
2018-07-30T11:15:53.839Z,585.2
2018-07-30T11:16:56.013Z,585.2
2018-07-30T11:17:58.468Z,585.1
2018-07-30T11:19:00.357Z,585.3
2018-07-30T11:20:02.872Z,585.4
2018-07-30T11:21:05.046Z,585.4
2018-07-30T11:22:07.501Z,585.3
2018-07-30T11:23:09.960Z,585.2
2018-07-30T11:24:12.138Z,585.3
2018-07-30T11:25:14.661Z,585.6
2018-07-30T11:26:17.107Z,585.6
2018-07-30T11:27:19.282Z,585.5
2018-07-30T11:28:21.754Z,585.6
2018-07-30T11:29:24.188Z,585.7
2018-07-30T11:30:26.638Z,585.5
2018-07-30T11:31:28.823Z,585.4
2018-07-30T11:32:31.025Z,585.2
2018-07-30T11:33:33.125Z,585.1
2018-07-30T11:34:35.579Z,585.4
2018-07-30T11:35:38.026Z,585.4
2018-07-30T11:36:40.216Z,585.4
2018-07-30T11:37:42.425Z,585.7
2018-07-30T11:38:44.928Z,585.7
2018-07-30T11:39:47.417Z,585.7
2018-07-30T11:40:49.607Z,586.1
2018-07-30T11:41:51.793Z,586
2018-07-30T11:42:54.266Z,585.8
2018-07-30T11:43:56.758Z,585.6
2018-07-30T11:44:59.223Z,586
2018-07-30T11:46:01.428Z,586.4
2018-07-30T11:47:03.888Z,586.3
2018-07-30T11:48:06.042Z,585.8
2018-07-30T11:49:07.929Z,586.3
2018-07-30T11:50:10.406Z,586.5
2018-07-30T11:51:12.567Z,586.3
2018-07-30T11:52:14.774Z,586.8
2018-07-30T11:53:16.970Z,586.4
2018-07-30T11:54:19.625Z,586.5
2018-07-30T11:55:21.802Z,586.4
2018-07-30T11:56:23.979Z,587
2018-07-30T11:57:26.157Z,587.1
2018-07-30T11:58:28.348Z,586.6
2018-07-30T11:59:30.815Z,587
2018-07-30T12:00:33.005Z,586.9
2018-07-30T12:01:35.450Z,586.9
2018-07-30T12:02:37.627Z,587.1
2018-07-30T12:03:39.797Z,587.1
2018-07-30T12:04:42.254Z,587
2018-07-30T12:05:44.427Z,586.9
2018-07-30T12:06:46.977Z,587.3
2018-07-30T12:07:49.487Z,587.4
2018-07-30T12:08:52.430Z,586.8
2018-07-30T12:09:54.876Z,586.9
2018-07-30T12:10:57.329Z,587
2018-07-30T12:11:59.507Z,587.1
2018-07-30T12:13:01.684Z,587.2
2018-07-30T12:14:03.845Z,587.4
2018-07-30T12:15:05.766Z,587.3
2018-07-30T12:16:07.382Z,587.4
2018-07-30T12:17:09.560Z,587
2018-07-30T12:18:11.448Z,587.4
2018-07-30T12:19:13.613Z,587.9
2018-07-30T12:20:16.067Z,587.7
2018-07-30T12:21:18.576Z,587.7
2018-07-30T12:22:20.180Z,587.7
2018-07-30T12:23:22.096Z,588
2018-07-30T12:24:24.272Z,588.1
2018-07-30T12:25:26.170Z,588.3
2018-07-30T12:26:28.660Z,588
2018-07-30T12:27:31.139Z,588.1
2018-07-30T12:28:33.590Z,588.1
2018-07-30T12:29:36.036Z,588.2
2018-07-30T12:30:38.930Z,588.1
2018-07-30T12:31:41.160Z,588.3
2018-07-30T12:32:43.031Z,588.2
2018-07-30T12:33:45.481Z,588.1
2018-07-30T12:34:47.654Z,588.3
2018-07-30T12:35:50.106Z,588.3
2018-07-30T12:36:51.992Z,588.6
2018-07-30T12:37:54.175Z,588.3
2018-07-30T12:38:56.323Z,588.6
2018-07-30T12:39:58.829Z,588.6
2018-07-30T12:41:00.989Z,588.8
2018-07-30T12:42:03.258Z,588.7
2018-07-30T12:43:05.447Z,588.5
2018-07-30T12:44:07.906Z,588.5
2018-07-30T12:45:09.810Z,589.2
2018-07-30T12:46:12.279Z,589.1
2018-07-30T12:47:14.727Z,589
2018-07-30T12:48:16.934Z,588.8
2018-07-30T12:49:18.564Z,589.1
2018-07-30T12:50:21.191Z,588.8
2018-07-30T12:51:23.367Z,588.9
2018-07-30T12:52:25.534Z,588.6
2018-07-30T12:53:27.469Z,588.9
2018-07-30T12:54:29.915Z,589
2018-07-30T12:55:31.820Z,589
2018-07-30T12:56:33.739Z,588.9
2018-07-30T12:57:36.185Z,588.8
2018-07-30T12:58:38.344Z,588.9
2018-07-30T12:59:40.789Z,588.6
2018-07-30T13:00:42.946Z,588.9
2018-07-30T13:01:44.827Z,588.9
2018-07-30T13:02:47.410Z,588.8
2018-07-30T13:03:49.617Z,588.8
2018-07-30T13:04:51.500Z,588.9
2018-07-30T13:05:53.367Z,589.2
2018-07-30T13:06:55.564Z,588.7
2018-07-30T13:07:58.004Z,588.9
2018-07-30T13:08:59.925Z,589
2018-07-30T13:10:02.118Z,589
2018-07-30T13:11:04.559Z,589
2018-07-30T13:12:06.731Z,589.2
2018-07-30T13:13:08.878Z,589.5
2018-07-30T13:14:11.342Z,589.3
2018-07-30T13:15:13.538Z,589.2
2018-07-30T13:16:15.989Z,589.4
2018-07-30T13:17:18.459Z,589.5
2018-07-30T13:18:20.925Z,589.7
2018-07-30T13:19:22.836Z,589.7
2018-07-30T13:20:25.005Z,590
2018-07-30T13:21:26.955Z,590
2018-07-30T13:22:29.144Z,589.7
2018-07-30T13:23:31.058Z,589.6
2018-07-30T13:24:33.549Z,590.5
2018-07-30T13:25:36.035Z,590.1
2018-07-30T13:26:38.652Z,590.3
2018-07-30T13:27:40.895Z,590.5